sensor_id;sensor_type;location;lat;lon;timestamp;pressure;altitude;pressure_sealevel;temperature;humidity
71126;BME280;58785;55.566;38.058;2023-04-19T00:01:52;101215.81;;;10.21;51.81
71126;BME280;58785;55.566;38.058;2023-04-19T00:04:18;101205.28;;;10.20;51.83
71126;BME280;58785;55.566;38.058;2023-04-19T00:06:45;101204.97;;;10.24;51.54
71126;BME280;58785;55.566;38.058;2023-04-19T00:09:12;101196.81;;;10.15;51.73
71126;BME280;58785;55.566;38.058;2023-04-19T00:11:37;101205.81;;;10.25;51.51
71126;BME280;58785;55.566;38.058;2023-04-19T00:14:03;101204.84;;;10.26;51.89
71126;BME280;58785;55.566;38.058;2023-04-19T00:16:29;101212.00;;;10.25;51.54
71126;BME280;58785;55.566;38.058;2023-04-19T00:18:55;101203.28;;;10.23;51.71
71126;BME280;58785;55.566;38.058;2023-04-19T00:21:21;101212.00;;;10.25;51.46
71126;BME280;58785;55.566;38.058;2023-04-19T00:23:46;101196.69;;;10.16;51.61
71126;BME280;58785;55.566;38.058;2023-04-19T00:26:12;101203.72;;;10.17;51.62
71126;BME280;58785;55.566;38.058;2023-04-19T00:28:40;101202.59;;;10.08;52.03
71126;BME280;58785;55.566;38.058;2023-04-19T00:31:05;101208.56;;;10.12;51.97
71126;BME280;58785;55.566;38.058;2023-04-19T00:33:31;101212.41;;;10.08;51.57
71126;BME280;58785;55.566;38.058;2023-04-19T00:35:57;101202.13;;;10.03;51.49
71126;BME280;58785;55.566;38.058;2023-04-19T00:38:23;101219.56;;;10.07;51.92
71126;BME280;58785;55.566;38.058;2023-04-19T00:40:48;101205.50;;;10.05;51.83
71126;BME280;58785;55.566;38.058;2023-04-19T00:43:18;101203.81;;;10.04;51.64
71126;BME280;58785;55.566;38.058;2023-04-19T00:45:47;101211.69;;;10.06;51.52
71126;BME280;58785;55.566;38.058;2023-04-19T00:48:14;101211.81;;;10.04;51.87
71126;BME280;58785;55.566;38.058;2023-04-19T00:50:41;101207.66;;;10.00;51.89
71126;BME280;58785;55.566;38.058;2023-04-19T00:53:07;101213.22;;;9.97;51.60
71126;BME280;58785;55.566;38.058;2023-04-19T00:55:33;101210.94;;;9.93;51.59
71126;BME280;58785;55.566;38.058;2023-04-19T00:57:59;101219.66;;;9.95;51.75
71126;BME280;58785;55.566;38.058;2023-04-19T01:00:25;101217.31;;;9.90;51.72
71126;BME280;58785;55.566;38.058;2023-04-19T01:02:50;101211.25;;;9.88;51.71
71126;BME280;58785;55.566;38.058;2023-04-19T01:05:16;101216.59;;;9.88;51.78
71126;BME280;58785;55.566;38.058;2023-04-19T01:07:42;101215.13;;;9.84;51.73
71126;BME280;58785;55.566;38.058;2023-04-19T01:10:09;101210.66;;;9.85;51.53
71126;BME280;58785;55.566;38.058;2023-04-19T01:12:34;101217.66;;;9.86;51.67
71126;BME280;58785;55.566;38.058;2023-04-19T01:15:01;101210.38;;;9.76;51.77
71126;BME280;58785;55.566;38.058;2023-04-19T01:17:30;101211.56;;;9.72;51.96
71126;BME280;58785;55.566;38.058;2023-04-19T01:20:03;101223.94;;;9.73;52.13
71126;BME280;58785;55.566;38.058;2023-04-19T01:22:31;101207.53;;;9.67;51.82
71126;BME280;58785;55.566;38.058;2023-04-19T01:24:57;101211.06;;;9.67;51.95
71126;BME280;58785;55.566;38.058;2023-04-19T01:27:23;101225.22;;;9.68;52.02
71126;BME280;58785;55.566;38.058;2023-04-19T01:29:51;101220.00;;;9.66;51.85
71126;BME280;58785;55.566;38.058;2023-04-19T01:32:17;101227.44;;;9.74;51.79
71126;BME280;58785;55.566;38.058;2023-04-19T01:34:42;101213.72;;;9.67;51.76
71126;BME280;58785;55.566;38.058;2023-04-19T01:37:08;101204.28;;;9.63;51.84
71126;BME280;58785;55.566;38.058;2023-04-19T01:39:34;101204.59;;;9.59;51.77
71126;BME280;58785;55.566;38.058;2023-04-19T01:41:59;101227.16;;;9.66;51.22
71126;BME280;58785;55.566;38.058;2023-04-19T01:44:25;101222.16;;;9.61;51.84
71126;BME280;58785;55.566;38.058;2023-04-19T01:46:51;101228.31;;;9.62;51.82
71126;BME280;58785;55.566;38.058;2023-04-19T01:49:16;101225.66;;;9.62;52.03
71126;BME280;58785;55.566;38.058;2023-04-19T01:51:42;101225.78;;;9.60;51.95
71126;BME280;58785;55.566;38.058;2023-04-19T01:54:08;101225.66;;;9.62;51.94
71126;BME280;58785;55.566;38.058;2023-04-19T01:56:33;101231.97;;;9.61;52.05
71126;BME280;58785;55.566;38.058;2023-04-19T01:58:59;101218.28;;;9.54;51.85
71126;BME280;58785;55.566;38.058;2023-04-19T02:01:25;101221.78;;;9.55;51.86
71126;BME280;58785;55.566;38.058;2023-04-19T02:03:50;101221.25;;;9.49;51.94
71126;BME280;58785;55.566;38.058;2023-04-19T02:06:16;101224.88;;;9.48;52.11
71126;BME280;58785;55.566;38.058;2023-04-19T02:08:42;101225.00;;;9.47;52.05
71126;BME280;58785;55.566;38.058;2023-04-19T02:11:08;101220.53;;;9.47;51.70
71126;BME280;58785;55.566;38.058;2023-04-19T02:13:35;101223.81;;;9.51;51.96
71126;BME280;58785;55.566;38.058;2023-04-19T02:16:02;101227.44;;;9.50;52.25
71126;BME280;58785;55.566;38.058;2023-04-19T02:18:28;101223.19;;;9.47;52.36
71126;BME280;58785;55.566;38.058;2023-04-19T02:21:00;101233.94;;;9.46;51.80
71126;BME280;58785;55.566;38.058;2023-04-19T02:23:26;101232.25;;;9.45;51.83
71126;BME280;58785;55.566;38.058;2023-04-19T02:25:52;101241.41;;;9.41;52.28
71126;BME280;58785;55.566;38.058;2023-04-19T02:28:18;101229.19;;;9.38;52.19
71126;BME280;58785;55.566;38.058;2023-04-19T02:30:43;101238.75;;;9.41;52.56
71126;BME280;58785;55.566;38.058;2023-04-19T02:33:09;101239.22;;;9.35;52.49
71126;BME280;58785;55.566;38.058;2023-04-19T02:35:35;101223.78;;;9.27;52.44
71126;BME280;58785;55.566;38.058;2023-04-19T02:38:02;101238.69;;;9.30;52.37
71126;BME280;58785;55.566;38.058;2023-04-19T02:40:28;101230.69;;;9.30;52.11
71126;BME280;58785;55.566;38.058;2023-04-19T02:42:53;101242.31;;;9.29;52.70
71126;BME280;58785;55.566;38.058;2023-04-19T02:45:19;101236.13;;;9.28;52.54
71126;BME280;58785;55.566;38.058;2023-04-19T02:47:45;101244.97;;;9.29;52.13
71126;BME280;58785;55.566;38.058;2023-04-19T02:50:11;101235.63;;;9.23;52.50
71126;BME280;58785;55.566;38.058;2023-04-19T02:52:37;101235.63;;;9.23;52.39
71126;BME280;58785;55.566;38.058;2023-04-19T02:55:04;101237.44;;;9.23;52.59
71126;BME280;58785;55.566;38.058;2023-04-19T02:57:31;101224.81;;;9.13;52.69
71126;BME280;58785;55.566;38.058;2023-04-19T02:59:57;101229.16;;;9.14;52.62
71126;BME280;58785;55.566;38.058;2023-04-19T03:02:24;101224.56;;;9.16;52.38
71126;BME280;58785;55.566;38.058;2023-04-19T03:04:50;101236.50;;;9.24;52.73
71126;BME280;58785;55.566;38.058;2023-04-19T03:07:17;101239.75;;;9.27;52.20
71126;BME280;58785;55.566;38.058;2023-04-19T03:09:43;101236.50;;;9.24;52.02
71126;BME280;58785;55.566;38.058;2023-04-19T03:12:09;101237.84;;;9.29;52.41
71126;BME280;58785;55.566;38.058;2023-04-19T03:14:35;101230.09;;;9.26;52.26
71126;BME280;58785;55.566;38.058;2023-04-19T03:17:01;101224.34;;;9.19;52.21
71126;BME280;58785;55.566;38.058;2023-04-19T03:19:28;101234.69;;;9.24;52.58
71126;BME280;58785;55.566;38.058;2023-04-19T03:21:53;101227.66;;;9.23;52.44
71126;BME280;58785;55.566;38.058;2023-04-19T03:24:19;101234.97;;;9.32;52.15
71126;BME280;58785;55.566;38.058;2023-04-19T03:26:45;101235.47;;;9.37;52.09
71126;BME280;58785;55.566;38.058;2023-04-19T03:29:12;101231.72;;;9.40;52.40
71126;BME280;58785;55.566;38.058;2023-04-19T03:31:38;101234.06;;;9.44;52.37
71126;BME280;58785;55.566;38.058;2023-04-19T03:34:04;101229.72;;;9.43;51.98
71126;BME280;58785;55.566;38.058;2023-04-19T03:36:30;101241.38;;;9.54;52.52
71126;BME280;58785;55.566;38.058;2023-04-19T03:38:55;101234.25;;;9.54;52.08
71126;BME280;58785;55.566;38.058;2023-04-19T03:41:23;101240.91;;;9.60;51.88
71126;BME280;58785;55.566;38.058;2023-04-19T03:43:49;101246.75;;;9.65;51.86
71126;BME280;58785;55.566;38.058;2023-04-19T03:46:14;101247.06;;;9.73;51.89
71126;BME280;58785;55.566;38.058;2023-04-19T03:48:40;101247.94;;;9.85;51.66
71126;BME280;58785;55.566;38.058;2023-04-19T03:51:06;101241.81;;;9.95;51.48
71126;BME280;58785;55.566;38.058;2023-04-19T03:53:31;101258.31;;;10.12;51.17
71126;BME280;58785;55.566;38.058;2023-04-19T03:55:57;101255.06;;;10.19;51.22
71126;BME280;58785;55.566;38.058;2023-04-19T03:58:23;101247.97;;;10.31;50.71
71126;BME280;58785;55.566;38.058;2023-04-19T04:00:48;101251.03;;;10.38;50.49
71126;BME280;58785;55.566;38.058;2023-04-19T04:03:15;101250.47;;;10.45;50.66
71126;BME280;58785;55.566;38.058;2023-04-19T04:05:40;101246.72;;;10.59;49.91
71126;BME280;58785;55.566;38.058;2023-04-19T04:08:06;101248.41;;;10.71;50.19
71126;BME280;58785;55.566;38.058;2023-04-19T04:10:32;101242.34;;;10.69;49.82
71126;BME280;58785;55.566;38.058;2023-04-19T04:12:57;101241.38;;;10.59;49.47
71126;BME280;58785;55.566;38.058;2023-04-19T04:15:23;101243.19;;;10.58;50.12
71126;BME280;58785;55.566;38.058;2023-04-19T04:17:49;101246.25;;;10.65;49.86
71126;BME280;58785;55.566;38.058;2023-04-19T04:20:15;101250.22;;;10.71;50.21
71126;BME280;58785;55.566;38.058;2023-04-19T04:22:42;101246.13;;;10.89;49.53
71126;BME280;58785;55.566;38.058;2023-04-19T04:25:09;101247.72;;;11.03;49.60
71126;BME280;58785;55.566;38.058;2023-04-19T04:27:35;101252.19;;;11.13;49.24
71126;BME280;58785;55.566;38.058;2023-04-19T04:30:01;101256.88;;;11.32;48.82
71126;BME280;58785;55.566;38.058;2023-04-19T04:32:31;101258.13;;;11.60;48.66
71126;BME280;58785;55.566;38.058;2023-04-19T04:35:01;101247.03;;;11.87;48.36
71126;BME280;58785;55.566;38.058;2023-04-19T04:37:33;101254.72;;;12.13;47.90
71126;BME280;58785;55.566;38.058;2023-04-19T04:40:00;101251.84;;;12.25;46.84
71126;BME280;58785;55.566;38.058;2023-04-19T04:42:26;101244.25;;;12.30;47.58
71126;BME280;58785;55.566;38.058;2023-04-19T04:44:52;101237.41;;;12.37;46.75
71126;BME280;58785;55.566;38.058;2023-04-19T04:47:23;101237.91;;;12.52;46.79
71126;BME280;58785;55.566;38.058;2023-04-19T04:49:49;101247.72;;;12.63;46.60
71126;BME280;58785;55.566;38.058;2023-04-19T04:52:15;101253.41;;;12.79;46.55
71126;BME280;58785;55.566;38.058;2023-04-19T04:54:41;101254.19;;;13.01;46.29
71126;BME280;58785;55.566;38.058;2023-04-19T04:57:07;101248.81;;;13.21;46.02
71126;BME280;58785;55.566;38.058;2023-04-19T04:59:33;101247.47;;;13.46;45.61
71126;BME280;58785;55.566;38.058;2023-04-19T05:01:58;101251.56;;;13.60;45.23
71126;BME280;58785;55.566;38.058;2023-04-19T05:04:24;101239.31;;;13.77;45.10
71126;BME280;58785;55.566;38.058;2023-04-19T05:06:50;101245.69;;;13.95;45.06
71126;BME280;58785;55.566;38.058;2023-04-19T05:09:16;101248.91;;;14.08;44.44
71126;BME280;58785;55.566;38.058;2023-04-19T05:11:42;101261.16;;;14.30;44.31
71126;BME280;58785;55.566;38.058;2023-04-19T05:14:07;101254.78;;;14.41;44.29
71126;BME280;58785;55.566;38.058;2023-04-19T05:16:33;101260.03;;;14.52;44.09
71126;BME280;58785;55.566;38.058;2023-04-19T05:18:59;101248.03;;;14.56;43.78
71126;BME280;58785;55.566;38.058;2023-04-19T05:21:25;101267.94;;;14.63;43.84
71126;BME280;58785;55.566;38.058;2023-04-19T05:23:51;101260.28;;;14.69;43.61
71126;BME280;58785;55.566;38.058;2023-04-19T05:26:18;101266.38;;;14.61;43.37
71126;BME280;58785;55.566;38.058;2023-04-19T05:32:24;101270.06;;;14.41;43.68
71126;BME280;58785;55.566;38.058;2023-04-19T05:34:50;101274.31;;;14.33;43.67
71126;BME280;58785;55.566;38.058;2023-04-19T05:37:16;101272.88;;;14.39;43.86
71126;BME280;58785;55.566;38.058;2023-04-19T05:39:42;101281.91;;;14.67;43.17
71126;BME280;58785;55.566;38.058;2023-04-19T05:42:07;101276.28;;;14.98;43.22
71126;BME280;58785;55.566;38.058;2023-04-19T05:44:33;101271.00;;;15.15;42.56
71126;BME280;58785;55.566;38.058;2023-04-19T05:46:58;101272.81;;;15.42;42.74
71126;BME280;58785;55.566;38.058;2023-04-19T05:49:25;101288.41;;;15.66;42.26
71126;BME280;58785;55.566;38.058;2023-04-19T05:51:51;101282.03;;;15.67;41.85
71126;BME280;58785;55.566;38.058;2023-04-19T05:54:18;101283.81;;;15.76;42.04
71126;BME280;58785;55.566;38.058;2023-04-19T05:56:44;101281.28;;;15.93;41.28
71126;BME280;58785;55.566;38.058;2023-04-19T05:59:10;101290.44;;;16.00;41.20
71126;BME280;58785;55.566;38.058;2023-04-19T06:01:35;101283.28;;;16.08;40.93
71126;BME280;58785;55.566;38.058;2023-04-19T06:04:01;101284.59;;;16.04;41.10
71126;BME280;58785;55.566;38.058;2023-04-19T06:06:27;101283.59;;;15.88;41.17
71126;BME280;58785;55.566;38.058;2023-04-19T06:08:53;101287.81;;;15.90;40.98
71126;BME280;58785;55.566;38.058;2023-04-19T06:11:19;101292.19;;;16.09;40.39
71126;BME280;58785;55.566;38.058;2023-04-19T06:13:44;101288.25;;;16.21;40.16
71126;BME280;58785;55.566;38.058;2023-04-19T06:16:10;101288.78;;;16.43;40.04
71126;BME280;58785;55.566;38.058;2023-04-19T06:18:36;101292.53;;;16.50;40.35
71126;BME280;58785;55.566;38.058;2023-04-19T06:21:02;101282.25;;;16.45;40.34
71126;BME280;58785;55.566;38.058;2023-04-19T06:23:27;101283.09;;;16.46;40.16
71126;BME280;58785;55.566;38.058;2023-04-19T06:25:53;101282.09;;;16.47;39.92
71126;BME280;58785;55.566;38.058;2023-04-19T06:28:18;101284.59;;;16.66;39.81
71126;BME280;58785;55.566;38.058;2023-04-19T06:30:44;101275.38;;;16.69;39.53
71126;BME280;58785;55.566;38.058;2023-04-19T06:33:10;101286.25;;;16.85;39.45
71126;BME280;58785;55.566;38.058;2023-04-19T06:35:36;101287.66;;;16.97;39.09
71126;BME280;58785;55.566;38.058;2023-04-19T06:38:02;101273.22;;;17.06;38.55
71126;BME280;58785;55.566;38.058;2023-04-19T06:40:28;101280.94;;;17.01;38.20
71126;BME280;58785;55.566;38.058;2023-04-19T06:42:54;101278.06;;;17.03;38.24
71126;BME280;58785;55.566;38.058;2023-04-19T06:45:20;101288.22;;;17.09;37.70
71126;BME280;58785;55.566;38.058;2023-04-19T06:47:46;101290.25;;;17.07;37.51
71126;BME280;58785;55.566;38.058;2023-04-19T06:50:12;101289.75;;;17.11;37.36
71126;BME280;58785;55.566;38.058;2023-04-19T06:52:38;101286.53;;;17.08;37.25
71126;BME280;58785;55.566;38.058;2023-04-19T06:55:05;101281.59;;;16.95;37.18
71126;BME280;58785;55.566;38.058;2023-04-19T06:57:31;101294.16;;;16.86;37.27
71126;BME280;58785;55.566;38.058;2023-04-19T06:59:57;101290.34;;;16.71;37.30
71126;BME280;58785;55.566;38.058;2023-04-19T07:02:23;101287.66;;;16.71;37.27
71126;BME280;58785;55.566;38.058;2023-04-19T07:04:49;101275.81;;;16.90;37.08
71126;BME280;58785;55.566;38.058;2023-04-19T07:07:15;101282.50;;;17.04;37.16
71126;BME280;58785;55.566;38.058;2023-04-19T07:09:42;101283.22;;;17.14;37.33
71126;BME280;58785;55.566;38.058;2023-04-19T07:12:07;101283.22;;;17.14;36.83
71126;BME280;58785;55.566;38.058;2023-04-19T07:14:33;101273.69;;;17.02;36.56
71126;BME280;58785;55.566;38.058;2023-04-19T07:16:59;101279.06;;;16.93;36.61
71126;BME280;58785;55.566;38.058;2023-04-19T07:19:25;101265.06;;;16.90;36.52
71126;BME280;58785;55.566;38.058;2023-04-19T07:21:52;101271.66;;;16.95;36.61
71126;BME280;58785;55.566;38.058;2023-04-19T07:24:18;101257.09;;;17.14;36.40
71126;BME280;58785;55.566;38.058;2023-04-19T07:26:44;101265.78;;;17.34;36.02
71126;BME280;58785;55.566;38.058;2023-04-19T07:29:09;101264.94;;;17.42;35.96
71126;BME280;58785;55.566;38.058;2023-04-19T07:31:35;101267.63;;;17.42;36.14
71126;BME280;58785;55.566;38.058;2023-04-19T07:34:01;101277.94;;;17.46;35.74
71126;BME280;58785;55.566;38.058;2023-04-19T07:36:27;101268.00;;;17.47;35.35
71126;BME280;58785;55.566;38.058;2023-04-19T07:38:53;101262.94;;;17.44;35.54
71126;BME280;58785;55.566;38.058;2023-04-19T07:41:19;101262.94;;;17.44;35.41
71126;BME280;58785;55.566;38.058;2023-04-19T07:43:44;101274.41;;;17.46;35.28
71126;BME280;58785;55.566;38.058;2023-04-19T07:46:12;101273.81;;;17.26;35.16
71126;BME280;58785;55.566;38.058;2023-04-19T07:48:37;101262.97;;;17.10;35.55
71126;BME280;58785;55.566;38.058;2023-04-19T07:51:08;101278.25;;;17.01;35.45
71126;BME280;58785;55.566;38.058;2023-04-19T07:53:34;101272.13;;;16.91;35.57
71126;BME280;58785;55.566;38.058;2023-04-19T07:56:00;101265.31;;;16.79;35.33
71126;BME280;58785;55.566;38.058;2023-04-19T07:58:25;101276.22;;;16.69;34.89
71126;BME280;58785;55.566;38.058;2023-04-19T08:00:51;101270.09;;;16.67;35.58
71126;BME280;58785;55.566;38.058;2023-04-19T08:03:17;101262.47;;;16.80;35.32
71126;BME280;58785;55.566;38.058;2023-04-19T08:05:42;101277.09;;;17.04;35.34
71126;BME280;58785;55.566;38.058;2023-04-19T08:08:08;101267.56;;;17.17;35.17
71126;BME280;58785;55.566;38.058;2023-04-19T08:10:34;101272.66;;;17.29;35.06
71126;BME280;58785;55.566;38.058;2023-04-19T08:13:00;101257.16;;;17.31;34.92
71126;BME280;58785;55.566;38.058;2023-04-19T08:15:26;101270.06;;;17.19;34.83
71126;BME280;58785;55.566;38.058;2023-04-19T08:17:51;101275.97;;;17.14;34.94
71126;BME280;58785;55.566;38.058;2023-04-19T08:20:17;101275.31;;;17.20;34.72
71126;BME280;58785;55.566;38.058;2023-04-19T08:22:43;101257.69;;;17.34;34.76
71126;BME280;58785;55.566;38.058;2023-04-19T08:25:10;101255.69;;;17.52;34.44
71126;BME280;58785;55.566;38.058;2023-04-19T08:27:35;101263.72;;;17.78;34.46
71126;BME280;58785;55.566;38.058;2023-04-19T08:30:02;101269.94;;;17.79;34.17
71126;BME280;58785;55.566;38.058;2023-04-19T08:32:31;101258.97;;;17.72;34.10
71126;BME280;58785;55.566;38.058;2023-04-19T08:34:56;101261.50;;;17.82;34.13
71126;BME280;58785;55.566;38.058;2023-04-19T08:37:22;101265.91;;;17.83;33.74
71126;BME280;58785;55.566;38.058;2023-04-19T08:39:48;101256.81;;;17.92;33.88
71126;BME280;58785;55.566;38.058;2023-04-19T08:42:13;101269.16;;;17.95;33.85
71126;BME280;58785;55.566;38.058;2023-04-19T08:44:39;101262.91;;;17.94;33.76
71126;BME280;58785;55.566;38.058;2023-04-19T08:47:06;101265.09;;;17.99;33.84
71126;BME280;58785;55.566;38.058;2023-04-19T08:49:35;101261.03;;;17.87;33.67
71126;BME280;58785;55.566;38.058;2023-04-19T08:52:05;101250.88;;;17.72;34.01
71126;BME280;58785;55.566;38.058;2023-04-19T08:54:33;101248.19;;;17.80;34.07
71126;BME280;58785;55.566;38.058;2023-04-19T08:56:59;101259.50;;;17.92;33.86
71126;BME280;58785;55.566;38.058;2023-04-19T08:59:26;101245.31;;;17.82;33.50
71126;BME280;58785;55.566;38.058;2023-04-19T09:01:55;101256.97;;;17.83;33.69
71126;BME280;58785;55.566;38.058;2023-04-19T09:04:24;101247.69;;;17.93;33.83
71126;BME280;58785;55.566;38.058;2023-04-19T09:06:50;101249.06;;;18.05;33.75
71126;BME280;58785;55.566;38.058;2023-04-19T09:09:24;101247.06;;;18.16;34.01
71126;BME280;58785;55.566;38.058;2023-04-19T09:11:51;101239.78;;;18.16;33.70
71126;BME280;58785;55.566;38.058;2023-04-19T09:14:18;101240.81;;;18.15;33.80
71126;BME280;58785;55.566;38.058;2023-04-19T09:16:44;101240.47;;;18.18;33.82
71126;BME280;58785;55.566;38.058;2023-04-19T09:19:11;101234.56;;;18.15;33.90
71126;BME280;58785;55.566;38.058;2023-04-19T09:21:38;101237.94;;;18.17;33.70
71126;BME280;58785;55.566;38.058;2023-04-19T09:24:04;101224.09;;;18.12;33.93
71126;BME280;58785;55.566;38.058;2023-04-19T09:26:31;101252.09;;;18.10;33.98
71126;BME280;58785;55.566;38.058;2023-04-19T09:29:01;101227.31;;;17.99;33.82
71126;BME280;58785;55.566;38.058;2023-04-19T09:31:28;101226.28;;;17.92;33.66
71126;BME280;58785;55.566;38.058;2023-04-19T09:33:54;101218.19;;;17.92;33.64
71126;BME280;58785;55.566;38.058;2023-04-19T09:36:28;101226.13;;;18.01;33.51
71126;BME280;58785;55.566;38.058;2023-04-19T09:38:53;101211.13;;;18.07;33.70
71126;BME280;58785;55.566;38.058;2023-04-19T09:41:19;101216.66;;;18.14;33.77
71126;BME280;58785;55.566;38.058;2023-04-19T09:43:46;101215.50;;;18.08;33.55
71126;BME280;58785;55.566;38.058;2023-04-19T09:46:31;101219.53;;;18.12;33.18
71126;BME280;58785;55.566;38.058;2023-04-19T09:49:24;101210.28;;;18.06;33.17
71126;BME280;58785;55.566;38.058;2023-04-19T09:51:51;101213.81;;;17.99;33.30
71126;BME280;58785;55.566;38.058;2023-04-19T09:54:19;101206.38;;;17.93;33.09
71126;BME280;58785;55.566;38.058;2023-04-19T09:56:46;101205.22;;;17.95;33.36
71126;BME280;58785;55.566;38.058;2023-04-19T09:59:12;101214.16;;;18.04;33.45
71126;BME280;58785;55.566;38.058;2023-04-19T10:01:41;101205.72;;;17.99;33.37
71126;BME280;58785;55.566;38.058;2023-04-19T10:04:09;101210.44;;;17.97;33.44
71126;BME280;58785;55.566;38.058;2023-04-19T10:06:36;101203.00;;;17.91;33.25
71126;BME280;58785;55.566;38.058;2023-04-19T10:09:03;101206.06;;;17.96;33.43
71126;BME280;58785;55.566;38.058;2023-04-19T10:11:36;101202.50;;;17.95;33.38
71126;BME280;58785;55.566;38.058;2023-04-19T10:14:07;101201.50;;;17.96;32.99
71126;BME280;58785;55.566;38.058;2023-04-19T10:16:34;101186.16;;;17.89;33.06
71126;BME280;58785;55.566;38.058;2023-04-19T10:19:07;101195.94;;;17.90;32.82
71126;BME280;58785;55.566;38.058;2023-04-19T10:21:33;101200.66;;;17.79;33.14
71126;BME280;58785;55.566;38.058;2023-04-19T10:24:00;101195.06;;;17.73;33.14
71126;BME280;58785;55.566;38.058;2023-04-19T10:26:26;101197.59;;;17.83;33.27
71126;BME280;58785;55.566;38.058;2023-04-19T10:28:54;101187.81;;;17.90;33.58
71126;BME280;58785;55.566;38.058;2023-04-19T10:31:21;101193.41;;;17.88;33.56
71126;BME280;58785;55.566;38.058;2023-04-19T10:33:48;101192.91;;;17.85;33.20
71126;BME280;58785;55.566;38.058;2023-04-19T10:36:16;101192.22;;;17.74;32.88
71126;BME280;58785;55.566;38.058;2023-04-19T10:38:49;101175.81;;;17.68;33.38
71126;BME280;58785;55.566;38.058;2023-04-19T10:41:20;101184.75;;;17.68;33.20
71126;BME280;58785;55.566;38.058;2023-04-19T10:44:08;101186.00;;;17.74;33.41
71126;BME280;58785;55.566;38.058;2023-04-19T10:49:01;101180.56;;;17.82;33.40
71126;BME280;58785;55.566;38.058;2023-04-19T10:51:37;101185.31;;;17.88;33.38
71126;BME280;58785;55.566;38.058;2023-04-19T10:54:04;101187.00;;;17.89;33.40
71126;BME280;58785;55.566;38.058;2023-04-19T11:01:33;101171.13;;;18.02;33.39
71126;BME280;58785;55.566;38.058;2023-04-19T11:04:01;101166.25;;;18.06;33.48
71126;BME280;58785;55.566;38.058;2023-04-19T11:06:27;101166.72;;;18.09;33.30
71126;BME280;58785;55.566;38.058;2023-04-19T11:08:53;101154.44;;;18.07;33.51
71126;BME280;58785;55.566;38.058;2023-04-19T11:11:19;101141.78;;;18.07;33.31
71126;BME280;58785;55.566;38.058;2023-04-19T11:13:47;101157.44;;;18.20;33.83
71126;BME280;58785;55.566;38.058;2023-04-19T11:16:13;101147.28;;;18.22;33.50
71126;BME280;58785;55.566;38.058;2023-04-19T11:18:38;101135.16;;;18.18;33.45
71126;BME280;58785;55.566;38.058;2023-04-19T11:21:04;101156.09;;;18.24;33.32
71126;BME280;58785;55.566;38.058;2023-04-19T11:23:30;101151.19;;;18.20;33.09
71126;BME280;58785;55.566;38.058;2023-04-19T11:25:57;101141.94;;;18.14;32.93
71126;BME280;58785;55.566;38.058;2023-04-19T11:28:23;101142.44;;;18.18;32.87
71126;BME280;58785;55.566;38.058;2023-04-19T11:30:49;101132.97;;;18.22;32.74
71126;BME280;58785;55.566;38.058;2023-04-19T11:33:18;101136.00;;;18.19;33.10
71126;BME280;58785;55.566;38.058;2023-04-19T11:35:49;101137.84;;;18.26;33.05
71126;BME280;58785;55.566;38.058;2023-04-19T11:38:15;101142.72;;;18.31;32.97
71126;BME280;58785;55.566;38.058;2023-04-19T11:40:41;101134.97;;;18.28;32.86
71126;BME280;58785;55.566;38.058;2023-04-19T11:43:07;101143.56;;;18.31;32.70
71126;BME280;58785;55.566;38.058;2023-04-19T11:45:35;101131.25;;;18.29;32.50
71126;BME280;58785;55.566;38.058;2023-04-19T11:48:04;101131.75;;;18.32;32.37
71126;BME280;58785;55.566;38.058;2023-04-19T11:50:38;101133.59;;;18.32;32.39
71126;BME280;58785;55.566;38.058;2023-04-19T11:53:13;101123.00;;;18.22;32.04
71126;BME280;58785;55.566;38.058;2023-04-19T11:55:54;101123.19;;;18.21;32.04
71126;BME280;58785;55.566;38.058;2023-04-19T12:00:50;101120.47;;;18.29;32.33
71126;BME280;58785;55.566;38.058;2023-04-19T12:03:16;101122.63;;;18.33;32.23
71126;BME280;58785;55.566;38.058;2023-04-19T12:05:52;101123.81;;;18.39;32.22
71126;BME280;58785;55.566;38.058;2023-04-19T12:08:29;101123.66;;;18.32;32.45
71126;BME280;58785;55.566;38.058;2023-04-19T12:10:57;101109.84;;;18.19;32.36
71126;BME280;58785;55.566;38.058;2023-04-19T12:13:24;101116.81;;;18.05;32.50
71126;BME280;58785;55.566;38.058;2023-04-19T12:15:50;101109.72;;;18.04;32.49
71126;BME280;58785;55.566;38.058;2023-04-19T12:18:16;101115.09;;;18.13;32.66
71126;BME280;58785;55.566;38.058;2023-04-19T12:20:46;101113.56;;;18.26;32.25
71126;BME280;58785;55.566;38.058;2023-04-19T12:23:13;101113.69;;;18.33;32.33
71126;BME280;58785;55.566;38.058;2023-04-19T12:25:41;101107.81;;;18.29;32.34
71126;BME280;58785;55.566;38.058;2023-04-19T12:28:07;101112.81;;;18.41;32.54
71126;BME280;58785;55.566;38.058;2023-04-19T12:30:37;101107.22;;;18.50;32.42
71126;BME280;58785;55.566;38.058;2023-04-19T12:33:03;101100.63;;;18.53;32.25
71126;BME280;58785;55.566;38.058;2023-04-19T12:35:29;101109.09;;;18.50;32.33
71126;BME280;58785;55.566;38.058;2023-04-19T12:37:57;101105.09;;;18.29;32.26
71126;BME280;58785;55.566;38.058;2023-04-19T12:40:24;101102.13;;;18.08;32.37
71126;BME280;58785;55.566;38.058;2023-04-19T12:42:50;101095.22;;;17.89;32.46
71126;BME280;58785;55.566;38.058;2023-04-19T12:45:17;101102.84;;;17.77;32.27
71126;BME280;58785;55.566;38.058;2023-04-19T12:47:44;101097.94;;;17.73;32.69
71126;BME280;58785;55.566;38.058;2023-04-19T12:50:12;101090.38;;;17.76;32.63
71126;BME280;58785;55.566;38.058;2023-04-19T12:52:38;101083.44;;;17.90;32.25
71126;BME280;58785;55.566;38.058;2023-04-19T12:55:04;101102.28;;;18.06;32.28